createdAt,value
2023-05-05T00:02:40.706Z,26.40
2023-05-05T00:05:08.375Z,26.40
2023-05-05T00:07:35.348Z,26.40
2023-05-05T00:10:04.935Z,26.30
2023-05-05T00:12:32.579Z,26.30
2023-05-05T00:14:59.597Z,26.40
2023-05-05T00:17:26.829Z,26.30
2023-05-05T00:19:53.818Z,26.40
2023-05-05T00:22:20.925Z,26.40
2023-05-05T00:24:47.866Z,26.30
2023-05-05T00:27:14.733Z,26.40
2023-05-05T00:29:41.676Z,26.40
2023-05-05T00:32:11.333Z,26.30
2023-05-05T00:34:38.235Z,26.30
2023-05-05T00:37:05.183Z,26.30
2023-05-05T00:39:33.269Z,26.30
2023-05-05T00:42:00.311Z,26.30
2023-05-05T00:44:42.268Z,26.30
2023-05-05T00:47:15.767Z,26.40
2023-05-05T00:49:43.487Z,26.30
2023-05-05T00:52:11.476Z,26.30
2023-05-05T00:54:38.940Z,26.30
2023-05-05T00:57:06.209Z,23.60
2023-05-05T00:59:35.052Z,26.30
2023-05-05T01:04:30.679Z,26.20
2023-05-05T01:07:17.771Z,26.20
2023-05-05T01:10:20.399Z,26.20
2023-05-05T01:13:08.314Z,26.30
2023-05-05T01:15:50.873Z,26.20
2023-05-05T01:21:12.535Z,26.30
2023-05-05T01:24:24.683Z,26.30
2023-05-05T01:27:18.551Z,26.20
2023-05-05T01:30:02.542Z,26.30
2023-05-05T01:32:37.716Z,26.20
2023-05-05T01:35:18.219Z,26.20
2023-05-05T01:38:16.204Z,26.20
2023-05-05T01:41:06.681Z,26.20
2023-05-05T01:43:37.120Z,26.20
2023-05-05T01:46:07.758Z,26.20
2023-05-05T01:48:37.036Z,26.20
2023-05-05T01:51:05.794Z,26.20
2023-05-05T01:53:34.463Z,26.10
2023-05-05T01:56:03.692Z,26.10
2023-05-05T02:01:01.768Z,26.10
2023-05-05T02:03:31.728Z,26.10
2023-05-05T02:06:01.650Z,26.10
2023-05-05T02:08:30.843Z,26.10
2023-05-05T02:10:59.454Z,26.10
2023-05-05T02:13:28.666Z,26.10
2023-05-05T02:15:57.279Z,26.00
2023-05-05T02:18:28.686Z,26.10
2023-05-05T02:20:55.790Z,26.10
2023-05-05T02:23:23.005Z,26.00
2023-05-05T02:25:55.568Z,26.10
2023-05-05T02:28:39.610Z,26.00
2023-05-05T02:31:09.864Z,26.00
2023-05-05T02:33:39.646Z,26.00
2023-05-05T02:36:21.835Z,26.00
2023-05-05T02:38:58.691Z,26.00
2023-05-05T02:41:28.374Z,26.00
2023-05-05T02:43:58.294Z,26.00
2023-05-05T02:46:26.001Z,26.00
2023-05-05T02:48:52.911Z,26.00
2023-05-05T02:51:19.833Z,26.00
2023-05-05T02:53:47.159Z,26.00
2023-05-05T02:56:38.667Z,26.00
2023-05-05T02:59:38.098Z,26.00
2023-05-05T03:02:54.782Z,26.00
2023-05-05T03:05:25.081Z,26.00
2023-05-05T03:08:17.525Z,26.00
2023-05-05T03:11:16.316Z,26.00
2023-05-05T03:13:46.500Z,26.00
2023-05-05T03:16:17.752Z,26.00
2023-05-05T03:18:48.504Z,25.80
2023-05-05T03:21:15.705Z,25.80
2023-05-05T03:23:42.947Z,26.00
2023-05-05T03:26:10.901Z,25.80
2023-05-05T03:28:40.655Z,25.90
2023-05-05T03:31:07.767Z,25.90
2023-05-05T03:33:34.705Z,25.80
2023-05-05T03:36:01.737Z,25.80
2023-05-05T03:38:28.628Z,25.80
2023-05-05T03:40:56.353Z,25.80
2023-05-05T03:45:50.991Z,25.80
2023-05-05T03:48:17.916Z,25.80
2023-05-05T03:50:48.940Z,25.90
2023-05-05T03:53:16.235Z,25.90
2023-05-05T03:55:43.224Z,25.80
2023-05-05T03:58:11.141Z,25.80
2023-05-05T04:00:38.264Z,25.80
2023-05-05T04:03:05.998Z,25.80
2023-05-05T04:05:32.998Z,25.80
2023-05-05T04:08:00.261Z,25.80
2023-05-05T04:10:27.756Z,25.70
2023-05-05T04:12:55.095Z,25.90
2023-05-05T04:15:22.592Z,25.80
2023-05-05T04:17:49.548Z,25.70
2023-05-05T04:20:16.811Z,25.80
2023-05-05T04:22:44.046Z,25.80
2023-05-05T04:25:11.326Z,25.70
2023-05-05T04:27:38.432Z,25.70
2023-05-05T04:30:08.104Z,25.70
2023-05-05T04:32:35.499Z,25.80
2023-05-05T04:35:02.632Z,25.70
2023-05-05T04:39:57.018Z,25.70
2023-05-05T04:42:26.364Z,25.60
2023-05-05T04:44:53.464Z,25.70
2023-05-05T04:47:20.401Z,25.80
2023-05-05T04:49:47.344Z,25.70
2023-05-05T04:52:14.374Z,25.80
2023-05-05T04:54:41.512Z,25.70
2023-05-05T04:57:08.634Z,25.70
2023-05-05T04:59:38.153Z,25.70
2023-05-05T05:02:05.347Z,25.60
2023-05-05T05:04:32.298Z,25.60
2023-05-05T05:06:59.405Z,25.60
2023-05-05T05:09:26.754Z,25.70
2023-05-05T05:14:21.350Z,25.60
2023-05-05T05:16:52.262Z,25.60
2023-05-05T05:19:22.536Z,25.60
2023-05-05T05:21:49.432Z,25.70
2023-05-05T05:24:16.542Z,25.60
2023-05-05T05:26:43.867Z,25.60
2023-05-05T05:29:10.836Z,25.60
2023-05-05T05:31:37.800Z,25.60
2023-05-05T05:36:32.650Z,25.60
2023-05-05T05:38:59.824Z,25.60
2023-05-05T05:41:26.870Z,25.70
2023-05-05T05:46:21.389Z,25.70
2023-05-05T05:51:15.882Z,25.80
2023-05-05T05:56:10.470Z,25.80
2023-05-05T05:58:39.011Z,26.00
2023-05-05T06:01:06.181Z,26.00
2023-05-05T06:08:28.319Z,26.20
2023-05-05T06:10:55.261Z,26.30
2023-05-05T06:13:22.547Z,26.40
2023-05-05T06:18:18.091Z,26.40
2023-05-05T06:20:45.139Z,26.60
2023-05-05T06:23:12.123Z,26.60
2023-05-05T06:28:07.265Z,26.70
2023-05-05T06:33:01.944Z,26.90
2023-05-05T06:35:30.501Z,26.90
2023-05-05T06:37:57.565Z,27.00
2023-05-05T06:42:52.071Z,27.00
2023-05-05T06:45:19.297Z,27.10
2023-05-05T06:47:46.253Z,27.10
2023-05-05T06:50:13.462Z,27.10
2023-05-05T06:52:41.194Z,27.30
2023-05-05T06:55:09.046Z,27.20
2023-05-05T06:57:36.244Z,27.20
2023-05-05T07:00:12.232Z,27.30
2023-05-05T07:02:40.295Z,27.40
2023-05-05T07:05:07.852Z,27.30
2023-05-05T07:07:36.388Z,27.30
2023-05-05T07:10:06.583Z,27.30
2023-05-05T07:15:09.401Z,27.40
2023-05-05T07:17:42.925Z,27.50
2023-05-05T07:20:12.048Z,27.40
2023-05-05T07:22:39.308Z,27.50
2023-05-05T07:25:07.445Z,27.50
2023-05-05T07:27:35.771Z,27.60
2023-05-05T07:30:06.001Z,27.60
2023-05-05T07:32:36.373Z,27.60
2023-05-05T07:35:03.829Z,27.50
2023-05-05T07:37:33.286Z,27.60
2023-05-05T07:42:29.501Z,27.70
2023-05-05T07:47:29.849Z,27.60
2023-05-05T07:49:57.444Z,27.60
2023-05-05T07:52:43.348Z,27.60
2023-05-05T07:57:39.952Z,27.60
2023-05-05T08:00:08.607Z,27.60
2023-05-05T08:05:08.386Z,27.60
2023-05-05T08:07:38.483Z,27.60
2023-05-05T08:10:06.626Z,27.60
2023-05-05T08:12:33.695Z,27.60
2023-05-05T08:15:04.875Z,27.70
2023-05-05T08:17:51.945Z,27.50
2023-05-05T08:20:21.319Z,27.60
2023-05-05T08:22:50.244Z,27.60
2023-05-05T08:25:18.072Z,27.60
2023-05-05T08:27:45.928Z,27.60
2023-05-05T08:30:20.094Z,27.60
2023-05-05T08:35:15.403Z,27.60
2023-05-05T08:37:42.918Z,27.60
2023-05-05T08:40:16.275Z,27.60
2023-05-05T08:42:46.619Z,27.60
2023-05-05T08:47:43.561Z,27.70
2023-05-05T08:50:11.746Z,27.60
2023-05-05T08:52:45.274Z,27.60
2023-05-05T08:55:28.065Z,27.60
2023-05-05T09:00:27.362Z,27.60
2023-05-05T09:02:58.575Z,27.60
2023-05-05T09:05:27.675Z,27.50
2023-05-05T09:10:24.756Z,27.60
2023-05-05T09:12:52.078Z,27.60
2023-05-05T09:15:24.378Z,27.70
2023-05-05T09:17:51.714Z,27.70
2023-05-05T09:20:18.710Z,27.60
2023-05-05T09:22:48.103Z,27.70
2023-05-05T09:25:19.740Z,27.70
2023-05-05T09:27:49.961Z,27.70
2023-05-05T09:30:24.519Z,27.70
2023-05-05T09:32:54.410Z,27.70
2023-05-05T09:40:20.708Z,27.80
2023-05-05T09:42:48.629Z,27.80
2023-05-05T09:45:27.592Z,27.70
2023-05-05T09:47:59.833Z,27.70
2023-05-05T09:50:30.871Z,27.60
2023-05-05T09:53:03.264Z,27.70
2023-05-05T09:55:31.505Z,27.70
2023-05-05T09:58:35.098Z,27.70
2023-05-05T10:01:04.257Z,27.70
2023-05-05T10:03:31.571Z,27.70
2023-05-05T10:06:01.052Z,27.80
2023-05-05T10:08:37.099Z,27.80
2023-05-05T10:11:06.975Z,27.80
2023-05-05T10:13:42.188Z,27.80
2023-05-05T10:18:46.407Z,27.90
2023-05-05T10:21:19.761Z,27.90
2023-05-05T10:24:01.028Z,27.90
2023-05-05T10:26:33.642Z,28.10
2023-05-05T10:29:12.992Z,28.00
2023-05-05T10:34:51.558Z,28.10
2023-05-05T10:37:22.501Z,28.20
2023-05-05T10:39:52.853Z,28.10
2023-05-05T10:44:51.347Z,28.20
2023-05-05T10:47:21.903Z,28.30
2023-05-05T10:50:06.893Z,28.30
2023-05-05T10:52:47.204Z,28.30
2023-05-05T10:55:33.873Z,28.30
2023-05-05T10:58:01.161Z,28.30
2023-05-05T11:00:49.760Z,28.30
2023-05-05T11:03:16.753Z,28.30
2023-05-05T11:06:05.930Z,28.00
2023-05-05T11:11:06.764Z,27.70
2023-05-05T11:16:05.420Z,28.20
2023-05-05T11:18:40.276Z,28.20
2023-05-05T11:21:22.269Z,28.30
2023-05-05T11:26:53.152Z,28.20
2023-05-05T11:29:23.295Z,28.20
2023-05-05T11:32:18.122Z,28.20
2023-05-05T11:34:51.599Z,28.10
2023-05-05T11:40:27.815Z,28.00
2023-05-05T11:43:07.695Z,28.10
2023-05-05T11:45:35.355Z,28.10
2023-05-05T11:48:28.955Z,27.90
2023-05-05T11:56:08.510Z,27.80
2023-05-05T11:58:38.874Z,27.50
2023-05-05T12:01:13.532Z,27.50
2023-05-05T12:03:42.047Z,27.60
2023-05-05T12:06:09.732Z,27.70
2023-05-05T12:08:41.491Z,27.60
2023-05-05T12:11:13.952Z,27.60
2023-05-05T12:13:41.936Z,27.70
2023-05-05T12:16:11.140Z,27.70
2023-05-05T12:18:38.757Z,27.60
2023-05-05T12:21:20.241Z,27.70
2023-05-05T12:23:50.272Z,27.70
2023-05-05T12:26:29.300Z,27.60
2023-05-05T12:28:58.391Z,27.70
2023-05-05T12:31:42.971Z,27.70
2023-05-05T12:34:12.096Z,27.70
2023-05-05T12:36:39.979Z,27.80
2023-05-05T12:39:08.431Z,27.80
2023-05-05T12:41:36.572Z,27.90
2023-05-05T12:44:04.675Z,27.90
2023-05-05T12:46:45.782Z,27.90
2023-05-05T12:49:13.393Z,28.00
2023-05-05T12:51:56.826Z,28.00
2023-05-05T12:54:25.270Z,28.10
2023-05-05T12:59:24.708Z,28.00
2023-05-05T13:01:57.815Z,28.00
2023-05-05T13:07:16.113Z,28.00
2023-05-05T13:09:43.878Z,28.00
2023-05-05T13:14:43.517Z,27.90
2023-05-05T13:17:12.532Z,27.90
2023-05-05T13:19:46.696Z,27.90
2023-05-05T13:24:51.526Z,27.90
2023-05-05T13:27:20.888Z,27.90
2023-05-05T13:29:49.558Z,27.90
2023-05-05T13:34:47.065Z,27.90
2023-05-05T13:39:59.657Z,27.90
2023-05-05T13:42:29.108Z,27.90
2023-05-05T13:44:56.146Z,27.90
2023-05-05T13:49:52.138Z,28.00
2023-05-05T13:52:19.478Z,27.90
2023-05-05T13:54:46.753Z,27.90
2023-05-05T13:57:14.119Z,28.00
2023-05-05T14:02:08.969Z,28.10
2023-05-05T14:04:39.651Z,28.00
2023-05-05T14:07:07.004Z,28.10
2023-05-05T14:12:01.836Z,28.20
2023-05-05T14:14:29.576Z,28.10
2023-05-05T14:16:56.934Z,28.20
2023-05-05T14:19:24.419Z,28.10
2023-05-05T14:21:51.442Z,28.00
2023-05-05T14:24:18.463Z,28.00
2023-05-05T14:26:45.882Z,28.00
2023-05-05T14:31:41.140Z,27.90
2023-05-05T14:34:08.387Z,28.00
2023-05-05T14:39:04.170Z,27.80
2023-05-05T14:41:31.547Z,27.90
2023-05-05T14:46:27.504Z,27.90
2023-05-05T14:48:55.793Z,27.80
2023-05-05T14:51:22.885Z,27.80
2023-05-05T14:53:50.034Z,27.70
2023-05-05T14:56:17.559Z,27.80
2023-05-05T15:01:12.573Z,27.80
2023-05-05T15:03:40.130Z,27.70
2023-05-05T15:06:08.904Z,27.70
2023-05-05T15:08:36.201Z,27.70
2023-05-05T15:13:32.012Z,27.80
2023-05-05T15:18:27.669Z,27.70
2023-05-05T15:20:55.037Z,27.60
2023-05-05T15:23:23.083Z,27.70
2023-05-05T15:25:50.123Z,27.70
2023-05-05T15:30:46.847Z,27.60
2023-05-05T15:33:17.424Z,27.70
2023-05-05T15:35:44.988Z,27.70
2023-05-05T15:38:12.833Z,27.60
2023-05-05T15:43:12.366Z,27.60
2023-05-05T15:45:41.456Z,27.60
2023-05-05T15:48:11.906Z,27.50
2023-05-05T15:50:40.101Z,27.50
2023-05-05T15:53:07.318Z,27.50
2023-05-05T15:55:34.716Z,27.50
2023-05-05T15:58:02.083Z,27.50
2023-05-05T16:02:59.884Z,27.50
2023-05-05T16:10:23.151Z,27.40
2023-05-05T16:15:20.161Z,27.40
2023-05-05T16:17:50.576Z,27.50
2023-05-05T16:20:20.964Z,27.50
2023-05-05T16:22:48.700Z,27.40
2023-05-05T16:25:18.884Z,27.40
2023-05-05T16:27:48.007Z,27.40
2023-05-05T16:30:15.897Z,27.40
2023-05-05T16:32:43.985Z,27.40
2023-05-05T16:35:12.310Z,27.40
2023-05-05T16:37:39.608Z,27.20
2023-05-05T16:40:07.927Z,27.40
2023-05-05T16:42:35.853Z,27.50
2023-05-05T16:45:03.468Z,27.40
2023-05-05T16:47:30.916Z,27.50
2023-05-05T16:52:30.205Z,27.30
2023-05-05T16:55:00.684Z,27.30
2023-05-05T16:57:27.777Z,27.30
2023-05-05T17:02:24.255Z,27.30
2023-05-05T17:17:15.005Z,27.30
2023-05-05T17:19:42.819Z,27.20
2023-05-05T17:24:38.774Z,27.20
2023-05-05T17:27:06.489Z,27.20
2023-05-05T17:32:06.236Z,27.10
2023-05-05T17:34:33.923Z,27.10
2023-05-05T17:37:02.196Z,27.10
2023-05-05T17:44:25.574Z,27.00
2023-05-05T17:46:52.705Z,27.00
2023-05-05T17:49:21.782Z,26.90
2023-05-05T17:51:49.062Z,26.90
2023-05-05T17:54:16.264Z,26.80
2023-05-05T17:56:46.181Z,26.80
2023-05-05T17:59:17.404Z,26.80
2023-05-05T18:01:46.749Z,26.80
2023-05-05T18:04:14.263Z,26.80
2023-05-05T18:11:44.407Z,26.70
2023-05-05T18:16:39.650Z,26.70
2023-05-05T18:19:07.348Z,26.60
2023-05-05T18:21:35.221Z,26.60
2023-05-05T18:26:50.570Z,26.60
2023-05-05T18:29:24.606Z,26.60
2023-05-05T18:31:55.024Z,26.60
2023-05-05T18:36:54.467Z,26.50
2023-05-05T18:39:21.466Z,26.50
2023-05-05T18:41:48.567Z,26.60
2023-05-05T18:51:39.502Z,26.40
2023-05-05T19:01:29.777Z,26.40
2023-05-05T19:03:57.240Z,26.30
2023-05-05T19:06:27.407Z,26.30
2023-05-05T19:08:55.592Z,26.30
2023-05-05T19:11:23.264Z,26.30
2023-05-05T19:13:51.394Z,26.30
2023-05-05T19:16:18.825Z,26.20
2023-05-05T19:18:45.992Z,26.30
2023-05-05T19:21:13.228Z,26.30
2023-05-05T19:23:41.000Z,26.30
2023-05-05T19:26:08.130Z,26.30
2023-05-05T19:28:35.192Z,26.20
2023-05-05T19:31:02.285Z,26.10
2023-05-05T19:38:24.669Z,26.20
2023-05-05T19:40:51.932Z,26.10
2023-05-05T19:43:18.828Z,26.10
2023-05-05T19:45:46.116Z,26.00
2023-05-05T19:48:13.249Z,26.10
2023-05-05T19:50:40.400Z,26.10
2023-05-05T19:53:07.328Z,26.00
2023-05-05T19:55:34.513Z,26.10
2023-05-05T19:58:01.501Z,26.10
2023-05-05T20:00:28.640Z,26.00
2023-05-05T20:02:56.299Z,26.00
2023-05-05T20:07:51.144Z,26.00
2023-05-05T20:10:19.045Z,25.90
2023-05-05T20:12:48.570Z,26.00
2023-05-05T20:15:19.536Z,25.90
2023-05-05T20:17:48.486Z,25.90
2023-05-05T20:20:20.795Z,25.90
2023-05-05T20:22:49.839Z,25.80
2023-05-05T20:25:18.615Z,25.80
2023-05-05T20:32:41.682Z,25.80
2023-05-05T20:35:09.602Z,25.80
2023-05-05T20:37:37.016Z,25.80
2023-05-05T20:40:04.217Z,25.80
2023-05-05T20:45:02.047Z,25.80
2023-05-05T20:47:29.173Z,25.80
2023-05-05T20:49:56.267Z,25.80
2023-05-05T20:52:23.401Z,25.80
2023-05-05T20:54:50.423Z,25.70
2023-05-05T20:57:17.481Z,25.80
2023-05-05T20:59:47.159Z,25.70
2023-05-05T21:02:17.418Z,25.70
2023-05-05T21:07:11.831Z,25.70
2023-05-05T21:09:39.040Z,25.70
2023-05-05T21:12:06.813Z,25.70
2023-05-05T21:14:35.688Z,25.60
2023-05-05T21:17:02.675Z,25.70
2023-05-05T21:19:32.844Z,25.70
2023-05-05T21:22:02.181Z,25.60
2023-05-05T21:24:29.104Z,25.60
2023-05-05T21:26:56.510Z,25.60
2023-05-05T21:29:27.064Z,25.60
2023-05-05T21:31:54.284Z,25.60
2023-05-05T21:34:21.283Z,25.60
2023-05-05T21:36:48.552Z,25.60
2023-05-05T21:39:15.860Z,25.70
2023-05-05T21:44:15.034Z,25.60
2023-05-05T21:46:43.144Z,25.60
2023-05-05T21:49:17.873Z,25.50
2023-05-05T21:51:46.596Z,25.60
2023-05-05T21:54:13.858Z,25.50
2023-05-05T21:56:41.280Z,25.50
2023-05-05T21:59:08.622Z,25.50
2023-05-05T22:01:38.857Z,25.50
2023-05-05T22:09:04.401Z,25.40
2023-05-05T22:11:31.528Z,25.40
2023-05-05T22:16:30.925Z,25.50
2023-05-05T22:18:58.021Z,25.40
2023-05-05T22:21:24.945Z,25.50
2023-05-05T22:23:54.875Z,25.50
2023-05-05T22:28:52.756Z,25.40
2023-05-05T22:31:19.856Z,25.40
2023-05-05T22:33:49.598Z,25.40
2023-05-05T22:36:16.565Z,25.40
2023-05-05T22:38:43.554Z,25.40
2023-05-05T22:41:10.753Z,25.40
2023-05-05T22:43:40.730Z,25.40
2023-05-05T22:51:03.532Z,25.30
2023-05-05T22:55:58.800Z,25.30
2023-05-05T22:58:27.072Z,25.40
2023-05-05T23:05:49.927Z,25.30
2023-05-05T23:08:16.826Z,25.30
2023-05-05T23:13:11.593Z,25.30
2023-05-05T23:18:06.422Z,25.30
2023-05-05T23:20:34.494Z,25.20
2023-05-05T23:23:03.151Z,25.20
2023-05-05T23:25:30.660Z,25.20
2023-05-05T23:30:25.457Z,25.20
2023-05-05T23:32:52.498Z,25.20
2023-05-05T23:35:19.619Z,25.20
2023-05-05T23:37:46.639Z,25.20
2023-05-05T23:40:13.681Z,25.30
2023-05-05T23:42:40.800Z,25.20
2023-05-05T23:45:09.164Z,25.20
2023-05-05T23:47:36.983Z,25.30
2023-05-05T23:50:04.356Z,25.10
2023-05-05T23:52:31.231Z,25.10
2023-05-05T23:54:58.421Z,25.20
2023-05-05T23:57:25.554Z,25.20
2023-05-05T23:59:52.618Z,25.20
